sensor_id;sensor_type;location;lat;lon;timestamp;P1;durP1;ratioP1;P2;durP2;ratioP2
64637;SDS011;51049;45.046;38.950;2022-12-11T00:02:05;1.40;;;1.00;;
64637;SDS011;51049;45.046;38.950;2022-12-11T00:04:31;1.35;;;1.08;;
64637;SDS011;51049;45.046;38.950;2022-12-11T00:07:00;0.55;;;0.55;;
64637;SDS011;51049;45.046;38.950;2022-12-11T00:09:26;1.70;;;1.60;;
64637;SDS011;51049;45.046;38.950;2022-12-11T00:11:52;3.10;;;2.30;;
64637;SDS011;51049;45.046;38.950;2022-12-11T00:14:18;4.18;;;2.47;;
64637;SDS011;51049;45.046;38.950;2022-12-11T00:16:46;5.53;;;1.98;;
64637;SDS011;51049;45.046;38.950;2022-12-11T00:19:13;1.92;;;0.88;;
64637;SDS011;51049;45.046;38.950;2022-12-11T00:21:40;2.88;;;1.30;;
64637;SDS011;51049;45.046;38.950;2022-12-11T00:24:06;1.35;;;1.25;;
64637;SDS011;51049;45.046;38.950;2022-12-11T00:26:36;6.68;;;2.83;;
64637;SDS011;51049;45.046;38.950;2022-12-11T00:29:04;3.05;;;1.75;;
64637;SDS011;51049;45.046;38.950;2022-12-11T00:31:35;3.40;;;2.05;;
64637;SDS011;51049;45.046;38.950;2022-12-11T00:34:01;2.80;;;2.03;;
64637;SDS011;51049;45.046;38.950;2022-12-11T00:36:27;1.08;;;0.95;;
64637;SDS011;51049;45.046;38.950;2022-12-11T00:38:54;3.00;;;1.35;;
64637;SDS011;51049;45.046;38.950;2022-12-11T00:41:20;0.68;;;0.68;;
64637;SDS011;51049;45.046;38.950;2022-12-11T00:43:46;4.60;;;3.08;;
64637;SDS011;51049;45.046;38.950;2022-12-11T00:46:13;2.15;;;1.63;;
64637;SDS011;51049;45.046;38.950;2022-12-11T00:48:40;8.57;;;2.22;;
64637;SDS011;51049;45.046;38.950;2022-12-11T00:51:07;2.17;;;1.10;;
64637;SDS011;51049;45.046;38.950;2022-12-11T00:53:33;2.10;;;1.90;;
64637;SDS011;51049;45.046;38.950;2022-12-11T00:56:00;10.77;;;2.03;;
64637;SDS011;51049;45.046;38.950;2022-12-11T00:58:26;1.65;;;1.30;;
64637;SDS011;51049;45.046;38.950;2022-12-11T01:00:52;4.28;;;1.85;;
64637;SDS011;51049;45.046;38.950;2022-12-11T01:03:18;8.38;;;2.45;;
64637;SDS011;51049;45.046;38.950;2022-12-11T01:05:51;0.90;;;0.82;;
64637;SDS011;51049;45.046;38.950;2022-12-11T01:08:19;2.83;;;2.63;;
64637;SDS011;51049;45.046;38.950;2022-12-11T01:10:45;3.50;;;2.42;;
64637;SDS011;51049;45.046;38.950;2022-12-11T01:13:11;1.15;;;1.10;;
64637;SDS011;51049;45.046;38.950;2022-12-11T01:15:39;8.98;;;2.78;;
64637;SDS011;51049;45.046;38.950;2022-12-11T01:18:07;4.60;;;1.67;;
64637;SDS011;51049;45.046;38.950;2022-12-11T01:20:33;1.85;;;1.75;;
64637;SDS011;51049;45.046;38.950;2022-12-11T01:22:59;5.60;;;1.50;;
64637;SDS011;51049;45.046;38.950;2022-12-11T01:25:26;1.50;;;1.15;;
64637;SDS011;51049;45.046;38.950;2022-12-11T01:27:53;2.17;;;1.77;;
64637;SDS011;51049;45.046;38.950;2022-12-11T01:30:21;1.67;;;1.25;;
64637;SDS011;51049;45.046;38.950;2022-12-11T01:32:48;4.10;;;2.30;;
64637;SDS011;51049;45.046;38.950;2022-12-11T01:35:14;1.70;;;1.55;;
64637;SDS011;51049;45.046;38.950;2022-12-11T01:37:41;1.05;;;0.98;;
64637;SDS011;51049;45.046;38.950;2022-12-11T01:40:08;1.85;;;1.30;;
64637;SDS011;51049;45.046;38.950;2022-12-11T01:42:37;3.25;;;1.48;;
64637;SDS011;51049;45.046;38.950;2022-12-11T01:47:55;1.58;;;1.48;;
64637;SDS011;51049;45.046;38.950;2022-12-11T01:50:34;0.40;;;0.40;;
64637;SDS011;51049;45.046;38.950;2022-12-11T01:53:05;0.63;;;0.63;;
64637;SDS011;51049;45.046;38.950;2022-12-11T01:55:33;0.60;;;0.55;;
64637;SDS011;51049;45.046;38.950;2022-12-11T01:58:02;0.65;;;0.65;;
64637;SDS011;51049;45.046;38.950;2022-12-11T02:00:28;3.75;;;1.38;;
64637;SDS011;51049;45.046;38.950;2022-12-11T02:02:54;4.47;;;1.55;;
64637;SDS011;51049;45.046;38.950;2022-12-11T02:05:20;0.95;;;0.85;;
64637;SDS011;51049;45.046;38.950;2022-12-11T02:07:47;3.70;;;2.30;;
64637;SDS011;51049;45.046;38.950;2022-12-11T02:10:16;0.75;;;0.73;;
64637;SDS011;51049;45.046;38.950;2022-12-11T02:16:07;0.85;;;0.85;;
64637;SDS011;51049;45.046;38.950;2022-12-11T02:21:37;1.52;;;1.42;;
64637;SDS011;51049;45.046;38.950;2022-12-11T02:24:15;0.30;;;0.30;;
64637;SDS011;51049;45.046;38.950;2022-12-11T02:27:00;5.65;;;2.45;;
64637;SDS011;51049;45.046;38.950;2022-12-11T02:29:50;1.30;;;1.17;;
64637;SDS011;51049;45.046;38.950;2022-12-11T02:32:21;1.45;;;1.33;;
64637;SDS011;51049;45.046;38.950;2022-12-11T02:34:54;3.40;;;1.05;;
64637;SDS011;51049;45.046;38.950;2022-12-11T02:37:35;6.97;;;1.45;;
64637;SDS011;51049;45.046;38.950;2022-12-11T02:40:03;4.65;;;1.98;;
64637;SDS011;51049;45.046;38.950;2022-12-11T02:42:33;4.47;;;1.30;;
64637;SDS011;51049;45.046;38.950;2022-12-11T02:45:02;4.10;;;1.45;;
64637;SDS011;51049;45.046;38.950;2022-12-11T02:47:30;1.33;;;1.02;;
64637;SDS011;51049;45.046;38.950;2022-12-11T02:49:58;3.90;;;2.88;;
64637;SDS011;51049;45.046;38.950;2022-12-11T02:52:26;2.30;;;2.13;;
64637;SDS011;51049;45.046;38.950;2022-12-11T02:54:55;2.67;;;0.93;;
64637;SDS011;51049;45.046;38.950;2022-12-11T02:57:29;5.65;;;1.02;;
64637;SDS011;51049;45.046;38.950;2022-12-11T03:00:03;2.35;;;1.27;;
64637;SDS011;51049;45.046;38.950;2022-12-11T03:02:30;3.65;;;2.15;;
64637;SDS011;51049;45.046;38.950;2022-12-11T03:04:57;0.70;;;0.50;;
64637;SDS011;51049;45.046;38.950;2022-12-11T03:07:25;1.50;;;1.05;;
64637;SDS011;51049;45.046;38.950;2022-12-11T03:09:54;4.60;;;1.33;;
64637;SDS011;51049;45.046;38.950;2022-12-11T03:12:30;4.22;;;2.90;;
64637;SDS011;51049;45.046;38.950;2022-12-11T03:14:59;3.75;;;2.20;;
64637;SDS011;51049;45.046;38.950;2022-12-11T03:28:18;2.00;;;1.08;;
64637;SDS011;51049;45.046;38.950;2022-12-11T03:30:53;2.95;;;1.70;;
64637;SDS011;51049;45.046;38.950;2022-12-11T03:33:40;1.52;;;1.42;;
64637;SDS011;51049;45.046;38.950;2022-12-11T03:36:10;4.97;;;1.42;;
64637;SDS011;51049;45.046;38.950;2022-12-11T03:38:58;2.40;;;1.70;;
64637;SDS011;51049;45.046;38.950;2022-12-11T03:41:28;3.72;;;2.85;;
64637;SDS011;51049;45.046;38.950;2022-12-11T03:43:57;1.42;;;0.88;;
64637;SDS011;51049;45.046;38.950;2022-12-11T03:46:26;3.63;;;1.20;;
64637;SDS011;51049;45.046;38.950;2022-12-11T03:48:57;1.08;;;1.08;;
64637;SDS011;51049;45.046;38.950;2022-12-11T03:51:30;2.15;;;1.52;;
64637;SDS011;51049;45.046;38.950;2022-12-11T03:53:58;9.18;;;2.47;;
64637;SDS011;51049;45.046;38.950;2022-12-11T03:56:24;0.60;;;0.60;;
64637;SDS011;51049;45.046;38.950;2022-12-11T03:58:53;0.63;;;0.50;;
64637;SDS011;51049;45.046;38.950;2022-12-11T04:01:19;6.63;;;1.73;;
64637;SDS011;51049;45.046;38.950;2022-12-11T04:03:45;1.48;;;1.38;;
64637;SDS011;51049;45.046;38.950;2022-12-11T04:06:11;2.67;;;1.40;;
64637;SDS011;51049;45.046;38.950;2022-12-11T04:08:37;1.70;;;1.60;;
64637;SDS011;51049;45.046;38.950;2022-12-11T04:11:03;5.68;;;2.22;;
64637;SDS011;51049;45.046;38.950;2022-12-11T04:13:48;2.08;;;1.33;;
64637;SDS011;51049;45.046;38.950;2022-12-11T04:16:34;11.07;;;2.47;;
64637;SDS011;51049;45.046;38.950;2022-12-11T04:19:00;1.13;;;0.93;;
64637;SDS011;51049;45.046;38.950;2022-12-11T04:21:45;2.10;;;1.38;;
64637;SDS011;51049;45.046;38.950;2022-12-11T04:24:30;1.90;;;1.35;;
64637;SDS011;51049;45.046;38.950;2022-12-11T04:26:56;0.45;;;0.45;;
64637;SDS011;51049;45.046;38.950;2022-12-11T04:29:22;1.52;;;1.42;;
64637;SDS011;51049;45.046;38.950;2022-12-11T04:31:48;2.03;;;0.80;;
64637;SDS011;51049;45.046;38.950;2022-12-11T04:34:17;0.65;;;0.65;;
64637;SDS011;51049;45.046;38.950;2022-12-11T04:36:43;0.57;;;0.57;;
64637;SDS011;51049;45.046;38.950;2022-12-11T04:39:09;0.57;;;0.57;;
64637;SDS011;51049;45.046;38.950;2022-12-11T04:41:35;5.25;;;1.38;;
64637;SDS011;51049;45.046;38.950;2022-12-11T04:44:03;6.93;;;1.67;;
64637;SDS011;51049;45.046;38.950;2022-12-11T04:46:30;1.48;;;0.70;;
64637;SDS011;51049;45.046;38.950;2022-12-11T04:48:57;0.93;;;0.63;;
64637;SDS011;51049;45.046;38.950;2022-12-11T04:51:25;1.35;;;1.25;;
64637;SDS011;51049;45.046;38.950;2022-12-11T04:53:52;0.85;;;0.85;;
64637;SDS011;51049;45.046;38.950;2022-12-11T04:56:24;0.38;;;0.38;;
64637;SDS011;51049;45.046;38.950;2022-12-11T04:58:50;1.17;;;0.55;;
64637;SDS011;51049;45.046;38.950;2022-12-11T05:01:17;0.63;;;0.63;;
64637;SDS011;51049;45.046;38.950;2022-12-11T05:03:44;0.77;;;0.77;;
64637;SDS011;51049;45.046;38.950;2022-12-11T05:06:11;0.50;;;0.50;;
64637;SDS011;51049;45.046;38.950;2022-12-11T05:08:38;8.98;;;4.03;;
64637;SDS011;51049;45.046;38.950;2022-12-11T05:11:06;1.02;;;0.73;;
64637;SDS011;51049;45.046;38.950;2022-12-11T05:13:34;7.38;;;1.33;;
64637;SDS011;51049;45.046;38.950;2022-12-11T05:16:04;1.25;;;1.15;;
64637;SDS011;51049;45.046;38.950;2022-12-11T05:18:31;9.27;;;1.10;;
64637;SDS011;51049;45.046;38.950;2022-12-11T05:20:59;8.13;;;0.93;;
64637;SDS011;51049;45.046;38.950;2022-12-11T05:23:27;1.65;;;0.98;;
64637;SDS011;51049;45.046;38.950;2022-12-11T05:25:54;0.47;;;0.40;;
64637;SDS011;51049;45.046;38.950;2022-12-11T05:28:21;1.10;;;0.77;;
64637;SDS011;51049;45.046;38.950;2022-12-11T05:30:58;1.65;;;1.50;;
64637;SDS011;51049;45.046;38.950;2022-12-11T05:33:29;0.80;;;0.70;;
64637;SDS011;51049;45.046;38.950;2022-12-11T05:36:03;0.98;;;0.80;;
64637;SDS011;51049;45.046;38.950;2022-12-11T05:38:30;0.50;;;0.50;;
64637;SDS011;51049;45.046;38.950;2022-12-11T05:41:09;0.40;;;0.40;;
64637;SDS011;51049;45.046;38.950;2022-12-11T05:44:08;1.13;;;0.55;;
64637;SDS011;51049;45.046;38.950;2022-12-11T05:46:36;0.75;;;0.55;;
64637;SDS011;51049;45.046;38.950;2022-12-11T05:49:02;2.30;;;1.52;;
64637;SDS011;51049;45.046;38.950;2022-12-11T05:51:29;0.75;;;0.75;;
64637;SDS011;51049;45.046;38.950;2022-12-11T05:53:56;3.75;;;2.20;;
64637;SDS011;51049;45.046;38.950;2022-12-11T05:56:24;7.35;;;2.22;;
64637;SDS011;51049;45.046;38.950;2022-12-11T05:58:55;5.78;;;1.77;;
64637;SDS011;51049;45.046;38.950;2022-12-11T06:01:25;1.20;;;1.10;;
64637;SDS011;51049;45.046;38.950;2022-12-11T06:03:56;5.57;;;1.38;;
64637;SDS011;51049;45.046;38.950;2022-12-11T06:06:23;1.17;;;1.08;;
64637;SDS011;51049;45.046;38.950;2022-12-11T06:08:51;1.60;;;1.48;;
64637;SDS011;51049;45.046;38.950;2022-12-11T06:11:22;1.63;;;1.20;;
64637;SDS011;51049;45.046;38.950;2022-12-11T06:13:51;0.60;;;0.60;;
64637;SDS011;51049;45.046;38.950;2022-12-11T06:16:18;3.60;;;1.50;;
64637;SDS011;51049;45.046;38.950;2022-12-11T06:18:45;0.73;;;0.73;;
64637;SDS011;51049;45.046;38.950;2022-12-11T06:21:19;1.50;;;1.33;;
64637;SDS011;51049;45.046;38.950;2022-12-11T06:24:28;1.08;;;0.98;;
64637;SDS011;51049;45.046;38.950;2022-12-11T06:27:12;2.75;;;1.65;;
64637;SDS011;51049;45.046;38.950;2022-12-11T06:29:45;1.35;;;1.25;;
64637;SDS011;51049;45.046;38.950;2022-12-11T06:32:20;1.75;;;1.00;;
64637;SDS011;51049;45.046;38.950;2022-12-11T06:34:50;0.95;;;0.93;;
64637;SDS011;51049;45.046;38.950;2022-12-11T06:37:29;1.08;;;0.95;;
64637;SDS011;51049;45.046;38.950;2022-12-11T06:40:03;0.57;;;0.50;;
64637;SDS011;51049;45.046;38.950;2022-12-11T06:42:40;2.05;;;0.82;;
64637;SDS011;51049;45.046;38.950;2022-12-11T06:45:06;2.35;;;1.13;;
64637;SDS011;51049;45.046;38.950;2022-12-11T06:47:49;2.75;;;1.55;;
64637;SDS011;51049;45.046;38.950;2022-12-11T06:50:19;2.22;;;1.08;;
64637;SDS011;51049;45.046;38.950;2022-12-11T06:52:58;2.15;;;1.08;;
64637;SDS011;51049;45.046;38.950;2022-12-11T06:55:34;0.82;;;0.82;;
64637;SDS011;51049;45.046;38.950;2022-12-11T06:58:11;0.93;;;0.80;;
64637;SDS011;51049;45.046;38.950;2022-12-11T07:00:44;4.88;;;2.33;;
64637;SDS011;51049;45.046;38.950;2022-12-11T07:03:13;2.50;;;2.10;;
64637;SDS011;51049;45.046;38.950;2022-12-11T07:06:02;3.25;;;1.60;;
64637;SDS011;51049;45.046;38.950;2022-12-11T07:08:39;3.20;;;1.23;;
64637;SDS011;51049;45.046;38.950;2022-12-11T07:11:15;8.88;;;1.70;;
64637;SDS011;51049;45.046;38.950;2022-12-11T07:13:45;2.60;;;1.95;;
64637;SDS011;51049;45.046;38.950;2022-12-11T07:16:19;1.67;;;1.58;;
64637;SDS011;51049;45.046;38.950;2022-12-11T07:19:02;5.90;;;2.65;;
64637;SDS011;51049;45.046;38.950;2022-12-11T07:21:41;1.75;;;1.65;;
64637;SDS011;51049;45.046;38.950;2022-12-11T07:24:18;1.50;;;1.27;;
64637;SDS011;51049;45.046;38.950;2022-12-11T07:27:05;0.70;;;0.68;;
64637;SDS011;51049;45.046;38.950;2022-12-11T07:29:41;4.25;;;1.85;;
64637;SDS011;51049;45.046;38.950;2022-12-11T07:32:20;3.72;;;1.63;;
64637;SDS011;51049;45.046;38.950;2022-12-11T07:35:00;2.17;;;1.48;;
64637;SDS011;51049;45.046;38.950;2022-12-11T07:37:41;2.28;;;2.08;;
64637;SDS011;51049;45.046;38.950;2022-12-11T07:40:10;4.43;;;2.08;;
64637;SDS011;51049;45.046;38.950;2022-12-11T07:42:40;2.13;;;1.98;;
64637;SDS011;51049;45.046;38.950;2022-12-11T07:47:57;1.60;;;1.50;;
64637;SDS011;51049;45.046;38.950;2022-12-11T07:50:44;3.00;;;1.65;;
64637;SDS011;51049;45.046;38.950;2022-12-11T07:53:40;4.57;;;1.23;;
64637;SDS011;51049;45.046;38.950;2022-12-11T07:56:14;4.35;;;2.63;;
64637;SDS011;51049;45.046;38.950;2022-12-11T07:59:04;1.63;;;1.20;;
64637;SDS011;51049;45.046;38.950;2022-12-11T08:01:43;10.13;;;2.40;;
64637;SDS011;51049;45.046;38.950;2022-12-11T08:04:15;1.88;;;1.67;;
64637;SDS011;51049;45.046;38.950;2022-12-11T08:06:45;3.47;;;1.13;;
64637;SDS011;51049;45.046;38.950;2022-12-11T08:09:28;7.67;;;3.40;;
64637;SDS011;51049;45.046;38.950;2022-12-11T08:12:09;5.32;;;2.47;;
64637;SDS011;51049;45.046;38.950;2022-12-11T08:15:07;6.35;;;3.13;;
64637;SDS011;51049;45.046;38.950;2022-12-11T08:17:47;12.43;;;3.25;;
64637;SDS011;51049;45.046;38.950;2022-12-11T08:20:24;3.20;;;1.85;;
64637;SDS011;51049;45.046;38.950;2022-12-11T08:23:05;4.30;;;2.50;;
64637;SDS011;51049;45.046;38.950;2022-12-11T08:25:43;10.32;;;3.75;;
64637;SDS011;51049;45.046;38.950;2022-12-11T08:28:12;2.22;;;1.63;;
64637;SDS011;51049;45.046;38.950;2022-12-11T08:30:50;4.35;;;2.33;;
64637;SDS011;51049;45.046;38.950;2022-12-11T08:33:25;6.35;;;2.97;;
64637;SDS011;51049;45.046;38.950;2022-12-11T08:36:05;1.92;;;1.73;;
64637;SDS011;51049;45.046;38.950;2022-12-11T08:38:58;2.70;;;2.08;;
64637;SDS011;51049;45.046;38.950;2022-12-11T08:41:33;2.92;;;2.70;;
64637;SDS011;51049;45.046;38.950;2022-12-11T08:44:29;8.73;;;3.30;;
64637;SDS011;51049;45.046;38.950;2022-12-11T08:47:12;7.20;;;4.93;;
64637;SDS011;51049;45.046;38.950;2022-12-11T08:50:03;5.10;;;3.42;;
64637;SDS011;51049;45.046;38.950;2022-12-11T08:52:45;6.15;;;2.65;;
64637;SDS011;51049;45.046;38.950;2022-12-11T08:55:26;3.30;;;2.38;;
64637;SDS011;51049;45.046;38.950;2022-12-11T08:58:02;4.45;;;2.40;;
64637;SDS011;51049;45.046;38.950;2022-12-11T09:01:20;10.43;;;3.17;;
64637;SDS011;51049;45.046;38.950;2022-12-11T09:03:52;5.63;;;3.05;;
64637;SDS011;51049;45.046;38.950;2022-12-11T09:06:47;7.25;;;2.97;;
64637;SDS011;51049;45.046;38.950;2022-12-11T09:09:19;4.85;;;3.53;;
64637;SDS011;51049;45.046;38.950;2022-12-11T09:11:57;4.68;;;2.22;;
64637;SDS011;51049;45.046;38.950;2022-12-11T09:14:34;8.18;;;3.53;;
64637;SDS011;51049;45.046;38.950;2022-12-11T09:17:04;8.80;;;3.88;;
64637;SDS011;51049;45.046;38.950;2022-12-11T09:19:33;5.63;;;2.63;;
64637;SDS011;51049;45.046;38.950;2022-12-11T09:22:25;8.82;;;4.38;;
64637;SDS011;51049;45.046;38.950;2022-12-11T09:24:59;13.18;;;4.88;;
64637;SDS011;51049;45.046;38.950;2022-12-11T09:27:36;14.15;;;3.58;;
64637;SDS011;51049;45.046;38.950;2022-12-11T09:30:10;14.18;;;5.43;;
64637;SDS011;51049;45.046;38.950;2022-12-11T09:32:42;19.58;;;4.38;;
64637;SDS011;51049;45.046;38.950;2022-12-11T09:35:19;16.15;;;4.68;;
64637;SDS011;51049;45.046;38.950;2022-12-11T09:37:50;11.90;;;3.83;;
64637;SDS011;51049;45.046;38.950;2022-12-11T09:40:23;18.27;;;5.63;;
64637;SDS011;51049;45.046;38.950;2022-12-11T09:43:17;10.80;;;3.60;;
64637;SDS011;51049;45.046;38.950;2022-12-11T09:45:52;16.08;;;4.32;;
64637;SDS011;51049;45.046;38.950;2022-12-11T09:48:37;8.98;;;4.28;;
64637;SDS011;51049;45.046;38.950;2022-12-11T09:54:17;12.98;;;4.78;;
64637;SDS011;51049;45.046;38.950;2022-12-11T09:57:37;12.23;;;5.38;;
64637;SDS011;51049;45.046;38.950;2022-12-11T10:01:24;14.00;;;5.55;;
64637;SDS011;51049;45.046;38.950;2022-12-11T10:04:35;21.73;;;7.10;;
64637;SDS011;51049;45.046;38.950;2022-12-11T10:13:47;10.93;;;5.43;;
64637;SDS011;51049;45.046;38.950;2022-12-11T10:16:39;10.43;;;4.78;;
64637;SDS011;51049;45.046;38.950;2022-12-11T10:21:55;20.13;;;7.45;;
64637;SDS011;51049;45.046;38.950;2022-12-11T10:25:00;13.82;;;7.10;;
64637;SDS011;51049;45.046;38.950;2022-12-11T10:27:43;14.88;;;6.65;;
64637;SDS011;51049;45.046;38.950;2022-12-11T10:30:25;15.07;;;6.28;;
64637;SDS011;51049;45.046;38.950;2022-12-11T10:33:02;18.73;;;6.47;;
64637;SDS011;51049;45.046;38.950;2022-12-11T10:38:15;16.45;;;6.15;;
64637;SDS011;51049;45.046;38.950;2022-12-11T10:41:11;15.55;;;6.78;;
64637;SDS011;51049;45.046;38.950;2022-12-11T10:43:42;12.10;;;5.50;;
64637;SDS011;51049;45.046;38.950;2022-12-11T10:51:58;12.83;;;5.53;;
64637;SDS011;51049;45.046;38.950;2022-12-11T10:54:45;15.23;;;6.28;;
64637;SDS011;51049;45.046;38.950;2022-12-11T10:57:26;10.95;;;5.00;;
64637;SDS011;51049;45.046;38.950;2022-12-11T10:59:59;12.35;;;5.68;;
64637;SDS011;51049;45.046;38.950;2022-12-11T11:02:34;12.55;;;5.60;;
64637;SDS011;51049;45.046;38.950;2022-12-11T11:05:43;20.40;;;6.68;;
64637;SDS011;51049;45.046;38.950;2022-12-11T11:08:23;16.40;;;7.07;;
64637;SDS011;51049;45.046;38.950;2022-12-11T11:10:59;14.55;;;6.13;;
64637;SDS011;51049;45.046;38.950;2022-12-11T11:14:03;14.02;;;5.63;;
64637;SDS011;51049;45.046;38.950;2022-12-11T11:16:42;24.48;;;5.07;;
64637;SDS011;51049;45.046;38.950;2022-12-11T11:22:15;16.33;;;5.35;;
64637;SDS011;51049;45.046;38.950;2022-12-11T11:28:05;16.30;;;5.88;;
64637;SDS011;51049;45.046;38.950;2022-12-11T11:30:54;12.52;;;4.28;;
64637;SDS011;51049;45.046;38.950;2022-12-11T11:33:32;12.48;;;5.47;;
64637;SDS011;51049;45.046;38.950;2022-12-11T11:36:18;19.58;;;5.38;;
64637;SDS011;51049;45.046;38.950;2022-12-11T11:42:20;17.33;;;5.32;;
64637;SDS011;51049;45.046;38.950;2022-12-11T11:45:38;14.07;;;4.57;;
64637;SDS011;51049;45.046;38.950;2022-12-11T11:54:39;13.35;;;5.30;;
64637;SDS011;51049;45.046;38.950;2022-12-11T12:00:19;19.15;;;4.65;;
64637;SDS011;51049;45.046;38.950;2022-12-11T12:03:27;15.27;;;4.80;;
64637;SDS011;51049;45.046;38.950;2022-12-11T12:17:54;10.93;;;4.30;;
64637;SDS011;51049;45.046;38.950;2022-12-11T12:23:48;8.82;;;4.25;;
64637;SDS011;51049;45.046;38.950;2022-12-11T12:26:55;10.77;;;4.95;;
64637;SDS011;51049;45.046;38.950;2022-12-11T12:29:55;17.55;;;4.40;;
64637;SDS011;51049;45.046;38.950;2022-12-11T12:41:13;12.20;;;7.07;;
64637;SDS011;51049;45.046;38.950;2022-12-11T12:44:09;5.93;;;4.05;;
64637;SDS011;51049;45.046;38.950;2022-12-11T12:46:59;8.18;;;3.83;;
64637;SDS011;51049;45.046;38.950;2022-12-11T12:49:54;6.07;;;3.22;;
64637;SDS011;51049;45.046;38.950;2022-12-11T12:52:41;7.30;;;3.72;;
64637;SDS011;51049;45.046;38.950;2022-12-11T12:55:53;8.95;;;3.90;;
64637;SDS011;51049;45.046;38.950;2022-12-11T12:58:28;14.85;;;4.00;;
64637;SDS011;51049;45.046;38.950;2022-12-11T13:01:26;6.68;;;4.53;;
64637;SDS011;51049;45.046;38.950;2022-12-11T13:06:38;10.07;;;5.07;;
64637;SDS011;51049;45.046;38.950;2022-12-11T13:09:18;12.60;;;5.05;;
64637;SDS011;51049;45.046;38.950;2022-12-11T13:11:54;8.65;;;3.63;;
64637;SDS011;51049;45.046;38.950;2022-12-11T13:14:27;9.70;;;5.30;;
64637;SDS011;51049;45.046;38.950;2022-12-11T13:17:21;15.10;;;6.75;;
64637;SDS011;51049;45.046;38.950;2022-12-11T13:20:19;7.90;;;4.70;;
64637;SDS011;51049;45.046;38.950;2022-12-11T13:23:17;9.65;;;5.50;;
64637;SDS011;51049;45.046;38.950;2022-12-11T13:26:01;13.65;;;5.85;;
64637;SDS011;51049;45.046;38.950;2022-12-11T13:34:05;16.17;;;8.77;;
64637;SDS011;51049;45.046;38.950;2022-12-11T13:39:36;19.70;;;9.02;;
64637;SDS011;51049;45.046;38.950;2022-12-11T13:42:17;26.10;;;8.27;;
64637;SDS011;51049;45.046;38.950;2022-12-11T13:48:25;21.70;;;8.88;;
64637;SDS011;51049;45.046;38.950;2022-12-11T13:51:26;20.58;;;9.02;;
64637;SDS011;51049;45.046;38.950;2022-12-11T13:54:16;13.60;;;9.60;;
64637;SDS011;51049;45.046;38.950;2022-12-11T14:02:46;15.50;;;9.48;;
64637;SDS011;51049;45.046;38.950;2022-12-11T14:05:18;8.02;;;5.32;;
64637;SDS011;51049;45.046;38.950;2022-12-11T14:07:51;19.58;;;9.18;;
64637;SDS011;51049;45.046;38.950;2022-12-11T14:10:32;13.15;;;7.85;;
64637;SDS011;51049;45.046;38.950;2022-12-11T14:13:16;12.63;;;9.55;;
64637;SDS011;51049;45.046;38.950;2022-12-11T14:16:13;11.75;;;4.38;;
64637;SDS011;51049;45.046;38.950;2022-12-11T14:18:49;18.50;;;8.50;;
64637;SDS011;51049;45.046;38.950;2022-12-11T14:21:53;25.15;;;9.30;;
64637;SDS011;51049;45.046;38.950;2022-12-11T14:24:46;15.07;;;5.57;;
64637;SDS011;51049;45.046;38.950;2022-12-11T14:27:21;15.45;;;6.82;;
64637;SDS011;51049;45.046;38.950;2022-12-11T14:29:48;6.45;;;5.18;;
64637;SDS011;51049;45.046;38.950;2022-12-11T14:32:31;11.05;;;7.28;;
64637;SDS011;51049;45.046;38.950;2022-12-11T14:35:03;19.30;;;7.50;;
64637;SDS011;51049;45.046;38.950;2022-12-11T14:37:37;12.68;;;6.20;;
64637;SDS011;51049;45.046;38.950;2022-12-11T14:40:09;7.10;;;4.85;;
64637;SDS011;51049;45.046;38.950;2022-12-11T14:43:14;10.80;;;5.40;;
64637;SDS011;51049;45.046;38.950;2022-12-11T14:46:28;12.65;;;4.32;;
64637;SDS011;51049;45.046;38.950;2022-12-11T14:56:05;2.17;;;1.95;;
64637;SDS011;51049;45.046;38.950;2022-12-11T15:06:56;2.38;;;2.10;;
64637;SDS011;51049;45.046;38.950;2022-12-11T15:09:46;14.00;;;4.35;;
64637;SDS011;51049;45.046;38.950;2022-12-11T15:12:23;9.65;;;4.05;;
64637;SDS011;51049;45.046;38.950;2022-12-11T15:15:13;3.95;;;2.88;;
64637;SDS011;51049;45.046;38.950;2022-12-11T15:17:48;2.90;;;1.58;;
64637;SDS011;51049;45.046;38.950;2022-12-11T15:20:20;6.35;;;4.20;;
64637;SDS011;51049;45.046;38.950;2022-12-11T15:22:55;4.32;;;2.92;;
64637;SDS011;51049;45.046;38.950;2022-12-11T15:25:26;8.80;;;2.15;;
64637;SDS011;51049;45.046;38.950;2022-12-11T15:27:54;5.32;;;2.40;;
64637;SDS011;51049;45.046;38.950;2022-12-11T15:35:38;6.30;;;3.65;;
64637;SDS011;51049;45.046;38.950;2022-12-11T15:38:23;4.70;;;2.72;;
64637;SDS011;51049;45.046;38.950;2022-12-11T15:40:51;7.32;;;2.35;;
64637;SDS011;51049;45.046;38.950;2022-12-11T15:43:18;8.38;;;4.55;;
64637;SDS011;51049;45.046;38.950;2022-12-11T15:48:56;8.52;;;2.35;;
64637;SDS011;51049;45.046;38.950;2022-12-11T15:51:23;1.65;;;1.55;;
64637;SDS011;51049;45.046;38.950;2022-12-11T15:53:49;2.78;;;2.58;;
64637;SDS011;51049;45.046;38.950;2022-12-11T15:56:15;4.85;;;2.72;;
64637;SDS011;51049;45.046;38.950;2022-12-11T15:58:41;4.90;;;2.92;;
64637;SDS011;51049;45.046;38.950;2022-12-11T16:01:09;5.88;;;2.20;;
64637;SDS011;51049;45.046;38.950;2022-12-11T16:03:35;2.60;;;2.40;;
64637;SDS011;51049;45.046;38.950;2022-12-11T16:06:01;3.90;;;2.95;;
64637;SDS011;51049;45.046;38.950;2022-12-11T16:08:28;7.65;;;3.63;;
64637;SDS011;51049;45.046;38.950;2022-12-11T16:10:54;4.78;;;3.55;;
64637;SDS011;51049;45.046;38.950;2022-12-11T16:13:20;7.18;;;4.63;;
64637;SDS011;51049;45.046;38.950;2022-12-11T16:15:48;4.63;;;2.92;;
64637;SDS011;51049;45.046;38.950;2022-12-11T16:18:16;7.22;;;3.45;;
64637;SDS011;51049;45.046;38.950;2022-12-11T16:20:45;3.88;;;2.50;;
64637;SDS011;51049;45.046;38.950;2022-12-11T16:23:12;9.85;;;2.88;;
64637;SDS011;51049;45.046;38.950;2022-12-11T16:25:42;4.20;;;2.95;;
64637;SDS011;51049;45.046;38.950;2022-12-11T16:28:10;7.22;;;4.10;;
64637;SDS011;51049;45.046;38.950;2022-12-11T16:30:39;6.80;;;2.80;;
64637;SDS011;51049;45.046;38.950;2022-12-11T16:33:06;3.40;;;2.47;;
64637;SDS011;51049;45.046;38.950;2022-12-11T16:35:35;8.40;;;3.70;;
64637;SDS011;51049;45.046;38.950;2022-12-11T16:38:04;1.90;;;1.65;;
64637;SDS011;51049;45.046;38.950;2022-12-11T16:40:30;3.63;;;1.90;;
64637;SDS011;51049;45.046;38.950;2022-12-11T16:42:56;8.15;;;2.45;;
64637;SDS011;51049;45.046;38.950;2022-12-11T16:45:24;10.38;;;4.75;;
64637;SDS011;51049;45.046;38.950;2022-12-11T16:47:51;3.65;;;3.13;;
64637;SDS011;51049;45.046;38.950;2022-12-11T16:50:20;3.58;;;2.92;;
64637;SDS011;51049;45.046;38.950;2022-12-11T16:52:46;6.70;;;3.08;;
64637;SDS011;51049;45.046;38.950;2022-12-11T16:55:13;2.85;;;1.92;;
64637;SDS011;51049;45.046;38.950;2022-12-11T16:57:40;5.72;;;2.60;;
64637;SDS011;51049;45.046;38.950;2022-12-11T17:00:07;4.38;;;3.35;;
64637;SDS011;51049;45.046;38.950;2022-12-11T17:02:36;6.72;;;2.28;;
64637;SDS011;51049;45.046;38.950;2022-12-11T17:05:02;7.68;;;2.28;;
64637;SDS011;51049;45.046;38.950;2022-12-11T17:07:30;9.60;;;3.50;;
64637;SDS011;51049;45.046;38.950;2022-12-11T17:09:56;2.40;;;1.38;;
64637;SDS011;51049;45.046;38.950;2022-12-11T17:12:23;4.57;;;3.55;;
64637;SDS011;51049;45.046;38.950;2022-12-11T17:14:52;7.80;;;3.97;;
64637;SDS011;51049;45.046;38.950;2022-12-11T17:17:19;12.23;;;3.55;;
64637;SDS011;51049;45.046;38.950;2022-12-11T17:19:47;4.50;;;3.08;;
64637;SDS011;51049;45.046;38.950;2022-12-11T17:22:13;6.05;;;2.58;;
64637;SDS011;51049;45.046;38.950;2022-12-11T17:24:40;5.32;;;2.97;;
64637;SDS011;51049;45.046;38.950;2022-12-11T17:27:06;2.50;;;1.48;;
64637;SDS011;51049;45.046;38.950;2022-12-11T17:29:32;2.42;;;1.90;;